Cassopolis, MI (49031)

7:18 PM EST on December 22, 2014 (GMT -0500)
Cass County | Change Station
CLOSE
Current Station
Personal Weather Station
Location: Cassopolis, MI
Elevation: 879 ft
Nearby Weather Stations

Elev 879 ft 41.88 °N, 86.04 °W | Updated 3 minutes ago

Rain
Rain
37.2 °F
Feels Like 37 °F
N
0.0
Wind Variable Wind from SE
Gusts 8.1 mph

Today
High -- | Low -- °F
--% Chance of Precip.
Yesterday
High -- | Low -- °F
Precip. -- in
8:08 AM 5:16 PM
New Moon, 1% visible
Pressure 29.79 in
Visibility 5.0 miles
Clouds Scattered Clouds 3600 ft
Overcast 4500 ft
Windchill 37 °F
Dew Point 31 °F
Humidity 78%
Rainfall 0.04 in
Snow Depth Not available.
UV 0 out of 12
Pollen .10 out of 12
Air Quality Not available.
Flu Activity Not available.
METAR KEKM 222350Z 10010KT 5SM RA SCT036 OVC045 03/00 A2979

More Conditions Fewer Conditions

Pressure 29.79 in
Visibility 5.0 miles
Clouds Scattered Clouds 3600 ft
Overcast 4500 ft
Windchill 37 °F
Dew Point 31 °F
Humidity 78%
Rainfall 0.04 in
Snow Depth Not available.
UV 0 out of 12
Pollen .10 out of 12
Air Quality Not available.
Flu Activity Not available.
METAR KEKM 222350Z 10010KT 5SM RA SCT036 OVC045 03/00 A2979

More Conditions Fewer Conditions

10-Day Weather Forecast

Almanac

Astronomy

Dec. 22, 2014 Rise Set
Actual Time
Civil Twilight
Nautical Twilight
Astronomical Twilight
Moon
Length of Visible Light
Length of Day
Tomorrow will be .
, % of the Moon is Illuminated

Today's Extremes

State Highs State Lows

Community

WunderPhotos

Upload Photos

1,779,736 photos uploaded!

WunderBlogs® & News

Nearby

Air Quality

  Air Quality AQ Index Pollutant
Not available.

Snow Depth

Station Depth Elevation

Earthquake Activity

City Distance Mag. Time & Date
Minimum magnitude displayed is 2.5.

Coastal Water Temperatures

Place Temperature

Nearby Weather Stations